createdAt,value
2023-05-19T00:00:37.338Z,60.30
2023-05-19T00:03:05.098Z,60.32
2023-05-19T00:05:32.492Z,60.31
2023-05-19T00:08:03.211Z,60.36
2023-05-19T00:10:32.098Z,60.32
2023-05-19T00:12:59.524Z,60.17
2023-05-19T00:15:26.712Z,60.39
2023-05-19T00:17:55.629Z,60.32
2023-05-19T00:20:22.803Z,60.28
2023-05-19T00:22:51.300Z,60.15
2023-05-19T00:25:18.420Z,60.14
2023-05-19T00:27:45.569Z,60.06
2023-05-19T00:30:12.970Z,60.09
2023-05-19T00:32:41.043Z,60.02
2023-05-19T00:35:08.530Z,60.03
2023-05-19T00:37:35.651Z,59.92
2023-05-19T00:40:02.723Z,59.99
2023-05-19T00:42:30.114Z,59.96
2023-05-19T00:44:57.852Z,59.94
2023-05-19T00:47:24.815Z,59.94
2023-05-19T00:49:51.744Z,59.91
2023-05-19T00:52:18.651Z,59.97
2023-05-19T00:54:46.470Z,59.95
2023-05-19T00:57:14.960Z,59.99
2023-05-19T00:59:41.980Z,59.83
2023-05-19T01:02:09.149Z,59.94
2023-05-19T01:04:38.188Z,59.95
2023-05-19T01:07:05.910Z,59.86
2023-05-19T01:09:33.428Z,59.82
2023-05-19T01:12:01.820Z,59.85
2023-05-19T01:14:29.827Z,59.93
2023-05-19T01:17:15.361Z,59.85
2023-05-19T01:19:46.883Z,59.70
2023-05-19T01:22:48.861Z,59.82
2023-05-19T01:25:28.467Z,59.90
2023-05-19T01:28:14.180Z,59.83
2023-05-19T01:30:43.345Z,59.58
2023-05-19T01:33:14.638Z,59.67
2023-05-19T01:35:43.930Z,59.56
2023-05-19T01:38:13.005Z,59.57
2023-05-19T01:40:42.296Z,59.68
2023-05-19T01:43:13.154Z,59.66
2023-05-19T01:45:40.723Z,59.67
2023-05-19T01:48:10.653Z,59.79
2023-05-19T01:50:39.251Z,59.69
2023-05-19T01:53:06.428Z,59.74
2023-05-19T01:55:39.074Z,59.63
2023-05-19T01:58:23.076Z,59.75
2023-05-19T02:00:50.170Z,59.69
2023-05-19T02:03:29.392Z,59.64
2023-05-19T02:06:14.503Z,59.56
2023-05-19T02:09:16.330Z,59.62
2023-05-19T02:11:55.851Z,59.53
2023-05-19T02:14:33.157Z,59.39
2023-05-19T02:17:01.206Z,59.28
2023-05-19T02:19:40.019Z,59.33
2023-05-19T02:22:07.162Z,59.40
2023-05-19T02:24:34.141Z,59.42
2023-05-19T02:27:01.142Z,59.32
2023-05-19T02:29:28.361Z,59.48
2023-05-19T02:31:55.388Z,59.50
2023-05-19T02:34:23.190Z,59.32
2023-05-19T02:36:51.030Z,59.27
2023-05-19T02:39:18.071Z,59.42
2023-05-19T02:41:45.031Z,59.38
2023-05-19T02:44:12.201Z,59.44
2023-05-19T02:46:39.283Z,59.35
2023-05-19T02:49:07.211Z,59.30
2023-05-19T02:51:34.680Z,59.27
2023-05-19T02:54:01.797Z,59.22
2023-05-19T02:56:29.179Z,59.25
2023-05-19T02:58:56.634Z,59.31
2023-05-19T03:01:23.742Z,59.36
2023-05-19T03:03:51.051Z,59.44
2023-05-19T03:06:18.724Z,59.44
2023-05-19T03:08:46.267Z,59.32
2023-05-19T03:11:13.636Z,59.40
2023-05-19T03:13:40.659Z,59.48
2023-05-19T03:16:08.549Z,59.47
2023-05-19T03:18:36.531Z,59.38
2023-05-19T03:21:03.846Z,59.41
2023-05-19T03:23:30.868Z,59.53
2023-05-19T03:25:58.124Z,59.48
2023-05-19T03:28:27.408Z,59.50
2023-05-19T03:30:54.636Z,59.52
2023-05-19T03:33:25.334Z,59.50
2023-05-19T03:35:53.323Z,59.47
2023-05-19T03:38:20.899Z,59.45
2023-05-19T03:40:55.592Z,59.50
2023-05-19T03:43:22.640Z,59.51
2023-05-19T03:45:55.039Z,59.49
2023-05-19T03:48:41.738Z,59.44
2023-05-19T03:51:20.825Z,59.48
2023-05-19T03:53:50.056Z,59.60
2023-05-19T03:56:18.431Z,59.56
2023-05-19T03:58:47.201Z,59.63
2023-05-19T04:01:15.603Z,59.58
2023-05-19T04:03:42.581Z,59.61
2023-05-19T04:06:09.719Z,59.66
2023-05-19T04:08:36.942Z,59.64
2023-05-19T04:11:03.872Z,59.63
2023-05-19T04:13:33.493Z,59.62
2023-05-19T04:16:01.736Z,59.48
2023-05-19T04:18:29.372Z,59.50
2023-05-19T04:20:56.694Z,59.36
2023-05-19T04:23:23.853Z,59.27
2023-05-19T04:25:50.924Z,59.07
2023-05-19T04:28:18.450Z,59.16
2023-05-19T04:30:47.081Z,59.11
2023-05-19T04:33:14.221Z,59.05
2023-05-19T04:35:44.089Z,59.21
2023-05-19T04:38:12.198Z,59.27
2023-05-19T04:40:40.596Z,59.29
2023-05-19T04:43:09.597Z,59.23
2023-05-19T04:45:38.088Z,59.44
2023-05-19T04:48:05.768Z,59.31
2023-05-19T04:50:33.887Z,59.30
2023-05-19T04:53:01.376Z,59.34
2023-05-19T04:55:28.871Z,59.43
2023-05-19T04:57:56.445Z,59.52
2023-05-19T05:00:23.898Z,59.51
2023-05-19T05:03:05.571Z,59.61
2023-05-19T05:05:33.248Z,59.55
2023-05-19T05:08:00.900Z,59.58
2023-05-19T05:10:31.385Z,59.72
2023-05-19T05:12:59.595Z,59.60
2023-05-19T05:15:29.002Z,59.72
2023-05-19T05:17:57.080Z,59.84
2023-05-19T05:20:24.918Z,59.87
2023-05-19T05:22:52.453Z,59.85
2023-05-19T05:25:20.936Z,59.82
2023-05-19T05:27:48.945Z,59.88
2023-05-19T05:30:16.101Z,59.90
2023-05-19T05:32:43.443Z,59.84
2023-05-19T05:35:18.850Z,59.91
2023-05-19T05:37:46.249Z,59.95
2023-05-19T05:40:13.720Z,59.92
2023-05-19T05:42:41.004Z,59.82
2023-05-19T05:45:08.356Z,59.92
2023-05-19T05:47:39.958Z,59.72
2023-05-19T05:50:09.958Z,59.78
2023-05-19T05:52:40.264Z,59.77
2023-05-19T05:55:08.286Z,59.99
2023-05-19T05:57:36.691Z,59.93
2023-05-19T06:00:10.592Z,59.90
2023-05-19T06:02:54.056Z,60.02
2023-05-19T06:05:21.844Z,60.00
2023-05-19T06:07:49.085Z,59.99
2023-05-19T06:10:20.882Z,59.99
2023-05-19T06:12:48.605Z,59.96
2023-05-19T06:15:15.999Z,59.95
2023-05-19T06:17:49.153Z,59.99
2023-05-19T06:20:16.632Z,59.96
2023-05-19T06:22:43.958Z,59.90
2023-05-19T06:25:11.161Z,60.00
2023-05-19T06:27:38.420Z,60.05
2023-05-19T06:30:06.771Z,60.00
2023-05-19T06:32:36.899Z,59.94
2023-05-19T06:35:04.822Z,59.92
2023-05-19T06:37:31.811Z,59.86
2023-05-19T06:39:59.068Z,59.83
2023-05-19T06:42:26.727Z,59.81
2023-05-19T06:45:08.220Z,59.78
2023-05-19T06:47:35.599Z,59.74
2023-05-19T06:50:02.880Z,59.69
2023-05-19T06:52:31.525Z,59.85
2023-05-19T06:55:00.430Z,59.73
2023-05-19T06:57:28.378Z,59.90
2023-05-19T06:59:56.698Z,59.79
2023-05-19T07:02:24.007Z,59.68
2023-05-19T07:04:52.820Z,59.83
2023-05-19T07:07:22.756Z,59.78
2023-05-19T07:09:50.380Z,59.73
2023-05-19T07:12:17.965Z,59.58
2023-05-19T07:14:46.678Z,59.54
2023-05-19T07:17:15.870Z,59.45
2023-05-19T07:19:44.299Z,59.41
2023-05-19T07:22:11.616Z,59.48
2023-05-19T07:24:38.595Z,59.41
2023-05-19T07:27:06.002Z,59.42
2023-05-19T07:29:32.978Z,59.36
2023-05-19T07:32:00.065Z,59.43
2023-05-19T07:34:27.173Z,59.33
2023-05-19T07:36:54.421Z,59.31
2023-05-19T07:39:21.524Z,59.35
2023-05-19T07:41:52.936Z,59.36
2023-05-19T07:44:19.875Z,59.40
2023-05-19T07:46:46.966Z,59.42
2023-05-19T07:49:13.935Z,59.36
2023-05-19T07:51:42.072Z,59.37
2023-05-19T07:54:09.124Z,59.37
2023-05-19T07:56:36.187Z,59.26
2023-05-19T07:59:04.206Z,59.36
2023-05-19T08:01:32.660Z,59.38
2023-05-19T08:04:00.257Z,59.33
2023-05-19T08:06:28.417Z,59.31
2023-05-19T08:08:55.388Z,59.38
2023-05-19T08:11:22.646Z,59.25
2023-05-19T08:13:50.151Z,59.29
2023-05-19T08:16:17.081Z,59.36
2023-05-19T08:18:44.148Z,59.38
2023-05-19T08:21:12.065Z,59.32
2023-05-19T08:23:39.156Z,59.23
2023-05-19T08:26:06.246Z,59.23
2023-05-19T08:28:33.494Z,59.20
2023-05-19T08:31:00.527Z,59.16
2023-05-19T08:33:27.697Z,59.20
2023-05-19T08:35:58.227Z,59.25
2023-05-19T08:38:27.047Z,59.29
2023-05-19T08:40:54.318Z,59.24
2023-05-19T08:43:21.345Z,59.40
2023-05-19T08:45:48.548Z,59.50
2023-05-19T08:48:17.652Z,59.44
2023-05-19T08:50:53.294Z,59.49
2023-05-19T08:53:33.198Z,59.39
2023-05-19T08:56:15.584Z,59.42
2023-05-19T08:58:44.218Z,59.42
2023-05-19T09:01:14.699Z,59.36
2023-05-19T09:03:43.803Z,59.38
2023-05-19T09:06:14.386Z,59.36
2023-05-19T09:08:42.534Z,59.43
2023-05-19T09:11:10.650Z,59.22
2023-05-19T09:13:37.731Z,59.33
2023-05-19T09:16:05.464Z,59.35
2023-05-19T09:18:32.660Z,59.35
2023-05-19T09:21:02.627Z,59.32
2023-05-19T09:23:31.922Z,59.30
2023-05-19T09:26:04.070Z,59.21
2023-05-19T09:28:34.322Z,59.39
2023-05-19T09:31:06.424Z,59.32
2023-05-19T09:33:35.627Z,59.33
2023-05-19T09:36:06.187Z,59.38
2023-05-19T09:38:33.901Z,59.35
2023-05-19T09:41:01.498Z,59.29
2023-05-19T09:43:33.795Z,59.18
2023-05-19T09:46:02.077Z,59.25
2023-05-19T09:48:29.450Z,59.29
2023-05-19T09:50:58.317Z,59.24
2023-05-19T09:53:25.768Z,59.18
2023-05-19T09:55:59.282Z,59.22
2023-05-19T09:58:27.183Z,59.34
2023-05-19T10:00:57.644Z,59.22
2023-05-19T10:03:25.948Z,59.30
2023-05-19T10:05:53.904Z,59.28
2023-05-19T10:08:24.282Z,59.40
2023-05-19T10:10:51.656Z,59.27
2023-05-19T10:13:19.710Z,59.23
2023-05-19T10:15:58.015Z,59.37
2023-05-19T10:18:27.851Z,59.29
2023-05-19T10:20:55.184Z,59.35
2023-05-19T10:23:22.668Z,59.30
2023-05-19T10:25:52.710Z,59.35
2023-05-19T10:28:25.669Z,59.26
2023-05-19T10:30:57.146Z,59.25
2023-05-19T10:33:37.406Z,59.34
2023-05-19T10:36:45.750Z,59.38
2023-05-19T10:39:45.238Z,59.24
2023-05-19T10:42:35.838Z,59.15
2023-05-19T10:45:12.800Z,59.13
2023-05-19T10:47:43.216Z,58.99
2023-05-19T10:50:11.679Z,59.09
2023-05-19T10:52:39.804Z,59.26
2023-05-19T10:55:17.935Z,59.40
2023-05-19T10:58:05.425Z,59.50
2023-05-19T11:00:32.637Z,59.70
2023-05-19T11:03:14.993Z,59.77
2023-05-19T11:05:45.778Z,59.81
2023-05-19T11:08:13.722Z,59.85
2023-05-19T11:10:45.229Z,59.85
2023-05-19T11:13:22.680Z,59.93
2023-05-19T11:15:50.738Z,59.88
2023-05-19T11:18:19.650Z,60.00
2023-05-19T11:20:58.220Z,60.02
2023-05-19T11:23:26.406Z,59.99
2023-05-19T11:25:56.893Z,59.98
2023-05-19T11:28:26.407Z,59.99
2023-05-19T11:30:57.723Z,59.99
2023-05-19T11:33:27.507Z,60.00
2023-05-19T11:35:58.424Z,59.94
2023-05-19T11:38:26.854Z,59.86
2023-05-19T11:40:54.929Z,59.98
2023-05-19T11:43:26.165Z,59.95
2023-05-19T11:45:56.589Z,59.96
2023-05-19T11:48:26.491Z,59.88
2023-05-19T11:50:53.865Z,59.85
2023-05-19T11:53:21.147Z,59.93
2023-05-19T11:55:49.519Z,59.98
2023-05-19T11:58:17.329Z,59.93
2023-05-19T12:00:48.067Z,59.87
2023-05-19T12:03:15.748Z,59.84
2023-05-19T12:05:48.597Z,59.69
2023-05-19T12:08:19.451Z,59.72
2023-05-19T12:10:51.107Z,59.80
2023-05-19T12:13:19.233Z,59.70
2023-05-19T12:15:46.291Z,59.71
2023-05-19T12:18:13.338Z,59.67
2023-05-19T12:20:40.460Z,59.70
2023-05-19T12:23:07.722Z,59.65
2023-05-19T12:25:36.402Z,59.65
2023-05-19T12:28:03.876Z,59.59
2023-05-19T12:30:32.635Z,59.59
2023-05-19T12:33:01.886Z,59.71
2023-05-19T12:35:30.762Z,59.60
2023-05-19T12:38:04.996Z,59.59
2023-05-19T12:40:34.023Z,59.51
2023-05-19T12:43:01.555Z,59.53
2023-05-19T12:45:29.063Z,59.55
2023-05-19T12:47:56.982Z,59.45
2023-05-19T12:50:31.142Z,59.47
2023-05-19T12:53:00.119Z,59.44
2023-05-19T12:55:27.129Z,59.45
2023-05-19T12:57:57.300Z,59.47
2023-05-19T13:00:28.708Z,59.53
2023-05-19T13:03:00.316Z,59.37
2023-05-19T13:05:31.123Z,59.44
2023-05-19T13:08:00.193Z,59.37
2023-05-19T13:10:28.353Z,59.38
2023-05-19T13:12:57.062Z,59.40
2023-05-19T13:15:26.459Z,59.33
2023-05-19T13:17:54.899Z,59.43
2023-05-19T13:20:22.679Z,59.33
2023-05-19T13:22:50.775Z,59.32
2023-05-19T13:25:17.718Z,59.29
2023-05-19T13:27:46.284Z,59.36
2023-05-19T13:30:13.568Z,59.41
2023-05-19T13:32:40.652Z,59.39
2023-05-19T13:35:08.056Z,59.44
2023-05-19T13:37:35.399Z,59.36
2023-05-19T13:40:03.071Z,59.37
2023-05-19T13:42:30.200Z,59.44
2023-05-19T13:44:57.435Z,59.54
2023-05-19T13:47:24.836Z,59.42
2023-05-19T13:49:54.120Z,59.47
2023-05-19T13:52:21.872Z,59.33
2023-05-19T13:54:49.753Z,59.40
2023-05-19T13:57:17.022Z,59.47
2023-05-19T13:59:57.669Z,59.50
2023-05-19T14:02:28.576Z,59.51
2023-05-19T14:04:56.041Z,59.54
2023-05-19T14:07:22.975Z,59.59
2023-05-19T14:09:51.387Z,59.57
2023-05-19T14:12:18.673Z,59.46
2023-05-19T14:14:48.443Z,59.42
2023-05-19T14:17:16.000Z,59.45
2023-05-19T14:19:43.672Z,59.31
2023-05-19T14:22:10.724Z,59.29
2023-05-19T14:24:37.652Z,59.31
2023-05-19T14:27:04.807Z,59.29
2023-05-19T14:29:31.936Z,59.24
2023-05-19T14:31:59.904Z,59.17
2023-05-19T14:34:27.178Z,59.21
2023-05-19T14:36:54.165Z,59.29
2023-05-19T14:39:21.803Z,59.34
2023-05-19T14:41:52.145Z,59.31
2023-05-19T14:44:19.193Z,59.49
2023-05-19T14:46:46.303Z,59.47
2023-05-19T14:49:13.343Z,59.60
2023-05-19T14:51:40.512Z,59.65
2023-05-19T14:54:07.666Z,59.59
2023-05-19T14:56:34.782Z,59.61
2023-05-19T14:59:01.903Z,59.56
2023-05-19T15:01:28.806Z,59.55
2023-05-19T15:03:56.295Z,59.46
2023-05-19T15:06:24.205Z,59.52
2023-05-19T15:08:51.784Z,59.54
2023-05-19T15:11:18.791Z,59.53
2023-05-19T15:13:45.949Z,59.53
2023-05-19T15:16:17.085Z,59.62
2023-05-19T15:18:45.405Z,59.65
2023-05-19T15:21:13.191Z,59.66
2023-05-19T15:23:40.190Z,59.67
2023-05-19T15:26:07.366Z,59.74
2023-05-19T15:28:34.772Z,59.79
2023-05-19T15:31:02.083Z,59.74
2023-05-19T15:33:30.036Z,59.77
2023-05-19T15:35:57.945Z,59.90
2023-05-19T15:38:26.123Z,59.83
2023-05-19T15:40:54.977Z,59.76
2023-05-19T15:43:22.540Z,59.65
2023-05-19T15:45:52.307Z,59.61
2023-05-19T15:48:19.589Z,59.63
2023-05-19T15:50:46.745Z,59.60
2023-05-19T15:53:14.323Z,59.40
2023-05-19T15:55:41.377Z,59.46
2023-05-19T15:58:09.117Z,59.47
2023-05-19T16:00:36.425Z,59.48
2023-05-19T16:03:03.743Z,59.47
2023-05-19T16:05:31.329Z,59.51
2023-05-19T16:07:58.539Z,59.54
2023-05-19T16:10:25.579Z,59.43
2023-05-19T16:12:52.671Z,59.58
2023-05-19T16:15:19.698Z,59.50
2023-05-19T16:17:46.676Z,59.60
2023-05-19T16:20:13.772Z,59.58
2023-05-19T16:22:40.811Z,59.46
2023-05-19T16:25:08.580Z,59.50
2023-05-19T16:27:37.328Z,59.50
2023-05-19T16:30:13.749Z,59.40
2023-05-19T16:32:41.599Z,59.40
2023-05-19T16:35:09.484Z,59.41
2023-05-19T16:37:36.623Z,59.32
2023-05-19T16:40:04.592Z,59.37
2023-05-19T16:42:32.655Z,59.37
2023-05-19T16:44:59.683Z,59.39
2023-05-19T16:47:26.803Z,59.44
2023-05-19T16:49:54.022Z,59.58
2023-05-19T16:52:21.260Z,59.82
2023-05-19T16:54:48.308Z,59.88
2023-05-19T16:57:15.905Z,60.02
2023-05-19T16:59:43.230Z,60.17
2023-05-19T17:02:10.363Z,60.39
2023-05-19T17:04:37.437Z,60.68
2023-05-19T17:07:04.766Z,60.76
2023-05-19T17:09:31.890Z,60.84
2023-05-19T17:11:59.798Z,60.83
2023-05-19T17:14:26.805Z,60.87
2023-05-19T17:16:54.649Z,60.92
2023-05-19T17:19:21.813Z,60.93
2023-05-19T17:21:48.959Z,61.00
2023-05-19T17:24:16.036Z,60.99
2023-05-19T17:26:43.085Z,61.03
2023-05-19T17:29:10.346Z,61.15
2023-05-19T17:31:37.333Z,61.19
2023-05-19T17:34:05.480Z,61.28
2023-05-19T17:36:32.618Z,61.19
2023-05-19T17:38:59.772Z,61.21
2023-05-19T17:41:26.806Z,61.33
2023-05-19T17:43:53.963Z,61.59
2023-05-19T17:46:21.170Z,61.68
2023-05-19T17:48:48.467Z,61.63
2023-05-19T17:51:15.841Z,61.55
2023-05-19T17:53:43.165Z,61.61
2023-05-19T17:56:22.542Z,61.60
2023-05-19T17:58:53.039Z,61.80
2023-05-19T18:01:24.267Z,61.77
2023-05-19T18:03:51.774Z,61.78
2023-05-19T18:06:19.854Z,61.81
2023-05-19T18:08:50.792Z,61.82
2023-05-19T18:11:19.137Z,61.79
2023-05-19T18:13:46.588Z,61.84
2023-05-19T18:16:16.030Z,61.77
2023-05-19T18:18:44.766Z,61.88
2023-05-19T18:21:14.437Z,62.03
2023-05-19T18:23:41.819Z,62.00
2023-05-19T18:26:08.784Z,61.91
2023-05-19T18:28:35.816Z,61.96
2023-05-19T18:31:05.137Z,62.04
2023-05-19T18:33:32.600Z,62.01
2023-05-19T18:36:00.052Z,62.11
2023-05-19T18:38:27.423Z,62.07
2023-05-19T18:40:54.558Z,62.04
2023-05-19T18:43:21.878Z,62.20
2023-05-19T18:45:49.206Z,62.12
2023-05-19T18:48:19.344Z,62.16
2023-05-19T18:50:46.741Z,62.22
2023-05-19T18:53:13.824Z,62.26
2023-05-19T18:55:41.152Z,62.48
2023-05-19T18:58:09.129Z,62.62
2023-05-19T19:00:37.832Z,62.58
2023-05-19T19:03:05.609Z,62.59
2023-05-19T19:05:33.601Z,62.51
2023-05-19T19:08:00.688Z,62.59
2023-05-19T19:10:35.806Z,62.49
2023-05-19T19:13:10.631Z,62.50
2023-05-19T19:15:43.068Z,62.50
2023-05-19T19:18:20.086Z,62.54
2023-05-19T19:20:50.708Z,62.57
2023-05-19T19:23:19.489Z,62.65
2023-05-19T19:25:49.616Z,62.75
2023-05-19T19:28:19.515Z,62.77
2023-05-19T19:30:49.162Z,62.69
2023-05-19T19:33:19.051Z,62.68
2023-05-19T19:35:48.906Z,62.65
2023-05-19T19:38:17.426Z,62.59
2023-05-19T19:40:47.120Z,62.51
2023-05-19T19:43:18.267Z,62.43
2023-05-19T19:45:48.978Z,62.39
2023-05-19T19:48:16.598Z,62.49
2023-05-19T19:50:44.388Z,62.60
2023-05-19T19:53:12.599Z,62.60
2023-05-19T19:55:40.147Z,62.63
2023-05-19T19:58:08.020Z,62.65
2023-05-19T20:00:36.302Z,62.71
2023-05-19T20:03:06.002Z,62.73
2023-05-19T20:05:35.315Z,62.48
2023-05-19T20:08:03.353Z,62.55
2023-05-19T20:10:38.097Z,62.48
2023-05-19T20:13:08.961Z,62.46
2023-05-19T20:15:41.838Z,62.41
2023-05-19T20:18:10.830Z,62.42
2023-05-19T20:20:39.841Z,62.46
2023-05-19T20:23:14.328Z,62.43
2023-05-19T20:25:58.947Z,62.40
2023-05-19T20:28:36.345Z,62.40
2023-05-19T20:31:06.571Z,62.56
2023-05-19T20:33:39.112Z,62.70
2023-05-19T20:36:07.846Z,62.88
2023-05-19T20:38:36.176Z,62.78
2023-05-19T20:41:05.007Z,62.77
2023-05-19T20:43:33.686Z,62.72
2023-05-19T20:46:04.201Z,62.63
2023-05-19T20:48:32.802Z,62.69
2023-05-19T20:51:01.514Z,62.59
2023-05-19T20:53:28.691Z,62.53
2023-05-19T20:55:55.792Z,62.61
2023-05-19T20:58:22.918Z,62.60
2023-05-19T21:00:57.104Z,62.61
2023-05-19T21:03:25.496Z,62.66
2023-05-19T21:05:54.247Z,62.73
2023-05-19T21:08:21.237Z,62.79
2023-05-19T21:10:48.941Z,62.76
2023-05-19T21:13:16.278Z,62.70
2023-05-19T21:15:43.737Z,62.53
2023-05-19T21:18:12.109Z,62.52
2023-05-19T21:20:40.303Z,62.53
2023-05-19T21:23:07.436Z,62.54
2023-05-19T21:25:34.815Z,62.50
2023-05-19T21:28:01.843Z,62.57
2023-05-19T21:30:28.801Z,62.63
2023-05-19T21:32:56.098Z,62.66
2023-05-19T21:35:24.011Z,62.69
2023-05-19T21:37:51.109Z,62.82
2023-05-19T21:40:21.186Z,62.99
2023-05-19T21:42:48.242Z,62.92
2023-05-19T21:45:15.275Z,62.88
2023-05-19T21:47:42.217Z,62.99
2023-05-19T21:50:11.211Z,62.95
2023-05-19T21:52:38.740Z,62.99
2023-05-19T21:55:06.323Z,63.02
2023-05-19T21:57:33.514Z,63.09
2023-05-19T22:00:00.706Z,63.07
2023-05-19T22:02:27.733Z,63.17
2023-05-19T22:04:54.829Z,63.25
2023-05-19T22:07:27.127Z,63.15
2023-05-19T22:09:54.221Z,63.14
2023-05-19T22:12:21.501Z,63.10
2023-05-19T22:14:49.014Z,63.05
2023-05-19T22:17:16.020Z,62.98
2023-05-19T22:19:43.019Z,63.04
2023-05-19T22:22:14.137Z,63.04
2023-05-19T22:24:41.931Z,63.09
2023-05-19T22:27:08.872Z,63.06
2023-05-19T22:29:38.962Z,63.17
2023-05-19T22:32:12.134Z,63.15
2023-05-19T22:34:39.722Z,63.06
2023-05-19T22:37:06.913Z,62.96
2023-05-19T22:39:34.068Z,63.00
2023-05-19T22:42:01.521Z,62.81
2023-05-19T22:44:28.508Z,62.80
2023-05-19T22:46:55.630Z,62.83
2023-05-19T22:49:23.598Z,62.81
2023-05-19T22:51:50.714Z,62.91
2023-05-19T22:54:17.743Z,63.04
2023-05-19T22:56:46.481Z,63.07
2023-05-19T22:59:14.134Z,63.19
2023-05-19T23:01:41.369Z,63.21
2023-05-19T23:04:08.458Z,63.17
2023-05-19T23:06:35.479Z,63.19
2023-05-19T23:09:03.698Z,63.15
2023-05-19T23:11:30.844Z,63.02
2023-05-19T23:13:57.863Z,63.12
2023-05-19T23:16:25.032Z,63.08
2023-05-19T23:18:52.116Z,63.11
2023-05-19T23:21:19.114Z,63.28
2023-05-19T23:23:46.045Z,63.28
2023-05-19T23:26:16.263Z,63.48
2023-05-19T23:28:44.200Z,63.42
2023-05-19T23:31:11.292Z,63.33
2023-05-19T23:33:38.363Z,63.42
2023-05-19T23:36:07.932Z,63.29
2023-05-19T23:38:38.019Z,63.40
2023-05-19T23:41:05.387Z,63.38
2023-05-19T23:43:32.821Z,63.36
2023-05-19T23:45:59.990Z,63.51
2023-05-19T23:48:30.234Z,63.48
2023-05-19T23:50:58.649Z,63.64
2023-05-19T23:53:25.890Z,63.54
2023-05-19T23:55:52.789Z,63.47
2023-05-19T23:58:19.706Z,63.39
